Time;durP1;ratioP1;P1;durP2;ratioP2;P2;SDS_P1;SDS_P2;PMS_P1;PMS_P2;Temp;Humidity;BMP_temperature;BMP_pressure;BME280_temperature;BME280_humidity;BME280_pressure;Samples;Min_cycle;Max_cycle;Signal;HPM_P1;HPM_P2
2022/04/15 00:00:06;;;;;;;11.37;10.23;;;;;;;15.51;78.58;95825.13;4326031;32;20189;-56
2022/04/15 00:02:36;;;;;;;10.87;9.80;;;;;;;15.49;79.95;95827.31;4346281;32;20177;-56
2022/04/15 00:05:34;;;;;;;11.03;10.10;;;;;;;15.45;79.94;95829.03;4363296;32;20208;-55
2022/04/15 00:07:52;;;;;;;11.23;10.10;;;;;;;15.49;80.91;95829.97;4316149;32;20192;-53
2022/04/15 00:10:19;;;;;;;11.40;10.20;;;;;;;15.34;81.64;95827.75;4345987;32;20211;-56
2022/04/15 00:12:46;;;;;;;10.40;9.50;;;;;;;15.19;82.26;95820.12;4366541;32;20276;-56
2022/04/15 00:15:13;;;;;;;10.83;9.80;;;;;;;15.35;80.09;95814.06;4358460;32;20194;-54
2022/04/15 00:17:40;;;;;;;10.27;9.33;;;;;;;15.46;79.89;95830.59;4358500;32;20275;-53
2022/04/15 00:20:07;;;;;;;11.10;10.10;;;;;;;15.45;82.23;95835.16;4341927;32;20244;-55
2022/04/15 00:22:33;;;;;;;11.13;9.97;;;;;;;15.48;82.26;95849.81;4340468;32;20212;-55
2022/04/15 00:25:00;;;;;;;9.97;9.03;;;;;;;15.47;83.10;95848.22;4341678;32;20237;-56
2022/04/15 00:27:27;;;;;;;11.10;10.07;;;;;;;15.37;83.20;95843.97;4340087;32;20254;-56
2022/04/15 00:29:54;;;;;;;9.40;8.70;;;;;;;15.39;81.95;95847.09;4358106;32;20222;-56
2022/04/15 00:32:20;;;;;;;10.07;9.07;;;;;;;15.36;83.88;95841.59;4368111;32;20287;-57
2022/04/15 00:34:45;;;;;;;9.27;8.40;;;;;;;15.43;83.46;95839.25;4362439;32;20268;-56
2022/04/15 00:37:12;;;;;;;11.23;10.07;;;;;;;15.41;83.56;95838.75;4368856;32;20189;-56
2022/04/15 00:39:45;;;;;;;11.70;10.70;;;;;;;15.30;84.34;95838.28;4368793;32;20281;-56
2022/04/15 00:42:13;;;;;;;12.77;11.67;;;;;;;15.37;84.28;95833.28;4342242;32;20184;-56
2022/04/15 00:44:39;;;;;;;9.40;8.80;;;;;;;15.43;86.49;95831.22;4342652;32;20279;-55
2022/04/15 00:47:34;;;;;;;10.00;9.10;;;;;;;15.27;85.86;95832.75;4360914;32;20178;-56
2022/04/15 00:50:02;;;;;;;12.30;11.20;;;;;;;15.27;85.82;95843.44;4348055;32;20181;-56
2022/04/15 00:52:39;;;;;;;12.03;11.03;;;;;;;15.21;85.65;95847.34;4364174;32;20189;-57
2022/04/15 00:55:06;;;;;;;11.23;10.23;;;;;;;15.16;88.03;95852.84;4357081;32;20193;-57
2022/04/15 00:57:37;;;;;;;11.57;10.53;;;;;;;15.03;87.82;95860.66;4372126;32;20189;-55
2022/04/15 01:00:20;;;;;;;14.30;12.80;;;;;;;15.17;87.16;95863.25;4372755;32;20184;-56
2022/04/15 01:02:48;;;;;;;12.27;11.20;;;;;;;15.02;89.22;95866.31;4358543;32;20197;-56
2022/04/15 01:05:15;;;;;;;13.63;12.63;;;;;;;15.05;88.35;95863.81;4360889;32;20217;-56
2022/04/15 01:08:08;;;;;;;12.90;11.40;;;;;;;15.02;89.71;95859.06;4320098;32;20260;-55
2022/04/15 01:10:38;;;;;;;11.20;10.30;;;;;;;14.94;89.93;95843.00;4350158;32;20260;-56
2022/04/15 01:13:07;;;;;;;13.40;12.07;;;;;;;15.04;88.14;95848.88;4360502;32;20185;-56
2022/04/15 01:15:34;;;;;;;12.43;11.43;;;;;;;14.97;88.99;95837.81;4356998;32;20261;-54
2022/04/15 01:17:59;;;;;;;14.00;12.83;;;;;;;15.13;88.07;95832.87;4362178;32;20242;-57
2022/04/15 01:20:30;;;;;;;13.60;12.47;;;;;;;15.05;89.00;95838.97;4357945;32;20192;-56
2022/04/15 01:23:08;;;;;;;13.07;11.80;;;;;;;15.04;88.99;95850.75;4357808;32;20207;-56
2022/04/15 01:25:36;;;;;;;14.27;13.10;;;;;;;15.15;88.38;95851.28;4384406;32;20184;-54
2022/04/15 01:28:05;;;;;;;13.43;12.30;;;;;;;15.13;87.90;95852.38;4349996;32;20216;-55
2022/04/15 01:30:31;;;;;;;12.57;11.47;;;;;;;15.13;87.86;95849.69;4347440;32;20193;-55
2022/04/15 01:32:58;;;;;;;10.83;9.93;;;;;;;15.13;88.09;95855.03;4358168;32;20237;-56
2022/04/15 01:35:25;;;;;;;15.17;14.00;;;;;;;15.13;87.73;95849.69;4342958;32;20234;-55
2022/04/15 01:37:52;;;;;;;11.03;10.13;;;;;;;15.12;88.63;95834.75;4358160;32;20264;-55
2022/04/15 01:40:18;;;;;;;11.97;10.83;;;;;;;15.15;87.83;95845.94;4365489;32;20207;-56
2022/04/15 01:42:46;;;;;;;12.77;11.47;;;;;;;15.22;87.72;95852.38;4373375;32;20193;-56
2022/04/15 01:45:16;;;;;;;13.90;12.73;;;;;;;15.11;88.29;95857.25;4366431;32;20252;-56
2022/04/15 01:47:43;;;;;;;13.03;11.93;;;;;;;15.05;90.02;95847.78;4341843;32;20230;-56
2022/04/15 01:50:11;;;;;;;10.17;9.47;;;;;;;14.94;89.57;95835.78;4376707;32;20255;-55
2022/04/15 01:52:38;;;;;;;14.73;13.33;;;;;;;15.01;87.65;95828.09;4349093;32;20204;-56
2022/04/15 01:55:05;;;;;;;12.57;11.47;;;;;;;15.07;89.85;95840.22;4343194;32;20235;-54
2022/04/15 01:57:31;;;;;;;12.67;11.57;;;;;;;14.97;89.79;95847.72;4371625;32;20268;-55
2022/04/15 01:59:57;;;;;;;13.40;12.30;;;;;;;15.01;89.36;95843.34;4359342;32;20181;-56
2022/04/15 02:02:22;;;;;;;14.97;13.47;;;;;;;14.83;90.87;95839.81;4361350;32;20259;-55
2022/04/15 02:04:48;;;;;;;12.77;11.57;;;;;;;15.04;89.21;95838.19;4371885;32;20188;-60
2022/04/15 02:07:15;;;;;;;11.87;10.87;;;;;;;14.99;89.67;95840.97;4355008;32;20193;-56
2022/04/15 02:09:41;;;;;;;12.90;11.87;;;;;;;15.01;88.71;95846.81;4345293;32;20327;-56
2022/04/15 02:12:11;;;;;;;12.43;11.03;;;;;;;14.96;91.37;95838.16;4374787;32;20182;-56
2022/04/15 02:14:37;;;;;;;11.17;10.07;;;;;;;14.81;91.07;95841.22;4356128;32;20181;-53
2022/04/15 02:17:02;;;;;;;13.17;12.03;;;;;;;14.86;89.53;95836.53;4330654;32;20188;-55
2022/04/15 02:19:28;;;;;;;11.73;10.63;;;;;;;14.91;90.34;95847.09;4357764;32;20195;-55
2022/04/15 02:21:55;;;;;;;12.40;11.37;;;;;;;14.85;90.05;95850.97;4366290;32;20200;-56
2022/04/15 02:24:21;;;;;;;11.00;9.90;;;;;;;14.85;90.23;95853.66;4368642;32;20253;-56
2022/04/15 02:26:50;;;;;;;12.43;10.70;;;;;;;14.80;90.55;95856.44;4367450;32;20284;-55
2022/04/15 02:29:17;;;;;;;11.87;10.87;;;;;;;14.75;90.18;95854.72;4364693;32;20192;-55
2022/04/15 02:31:43;;;;;;;12.47;11.27;;;;;;;14.79;90.09;95854.87;4352310;32;20178;-55
2022/04/15 02:34:11;;;;;;;12.63;11.43;;;;;;;14.88;90.51;95866.41;4354628;32;20199;-55
2022/04/15 02:36:37;;;;;;;11.90;10.90;;;;;;;14.81;90.21;95867.91;4353626;32;20177;-56
2022/04/15 02:39:10;;;;;;;12.17;10.97;;;;;;;14.82;90.58;95861.47;4361496;32;20204;-56
2022/04/15 02:41:43;;;;;;;14.53;13.10;;;;;;;14.66;91.58;95869.87;4362840;32;20219;-55
2022/04/15 02:44:10;;;;;;;12.90;11.83;;;;;;;14.71;92.25;95871.66;4369187;32;20268;-56
2022/04/15 02:46:37;;;;;;;13.13;11.90;;;;;;;14.68;91.86;95875.72;4353663;32;20204;-54
2022/04/15 02:49:04;;;;;;;14.37;12.30;;;;;;;14.61;92.09;95872.69;4342547;32;20197;-55
2022/04/15 02:51:33;;;;;;;12.93;11.23;;;;;;;14.62;92.98;95878.81;4355023;32;20189;-55
2022/04/15 02:53:58;;;;;;;13.30;12.10;;;;;;;14.62;92.09;95876.13;4345003;32;20185;-56
2022/04/15 02:56:25;;;;;;;11.23;10.33;;;;;;;14.62;93.14;95876.13;4368498;32;20260;-54
2022/04/15 02:58:58;;;;;;;11.97;10.80;;;;;;;14.59;92.63;95876.75;4361431;32;20205;-61
2022/04/15 03:01:26;;;;;;;11.83;10.70;;;;;;;14.52;93.32;95871.84;4336819;32;20185;-55
2022/04/15 03:03:52;;;;;;;13.13;11.93;;;;;;;14.50;92.86;95878.59;4365658;32;20212;-56
2022/04/15 03:06:22;;;;;;;14.27;13.07;;;;;;;14.56;93.06;95878.13;4372911;32;20208;-62
2022/04/15 03:08:48;;;;;;;13.53;12.33;;;;;;;14.53;93.81;95880.66;4369642;32;20310;-56
2022/04/15 03:11:15;;;;;;;12.33;11.33;;;;;;;14.44;94.65;95883.25;4339204;32;20246;-56
2022/04/15 03:13:42;;;;;;;14.50;13.10;;;;;;;14.41;94.67;95881.97;4366219;32;20203;-56
2022/04/15 03:16:11;;;;;;;10.80;9.80;;;;;;;14.46;94.65;95880.28;4374163;32;20208;-55
2022/04/15 03:18:38;;;;;;;13.37;12.20;;;;;;;14.46;93.14;95880.28;4354167;32;20211;-55
2022/04/15 03:21:06;;;;;;;12.10;11.00;;;;;;;14.47;94.04;95885.31;4369455;32;20272;-55
2022/04/15 03:23:34;;;;;;;13.53;12.27;;;;;;;14.38;94.01;95889.75;4338224;32;20208;-54
2022/04/15 03:25:59;;;;;;;14.27;13.03;;;;;;;14.37;94.65;95878.28;4332422;32;20255;-57
2022/04/15 03:28:26;;;;;;;12.30;11.27;;;;;;;14.36;94.35;95882.06;4365319;32;20173;-56
2022/04/15 03:30:55;;;;;;;12.57;11.60;;;;;;;14.43;93.80;95884.34;4357107;32;20193;-56
2022/04/15 03:33:21;;;;;;;13.40;12.40;;;;;;;14.37;93.83;95874.84;4359380;32;20247;-55
2022/04/15 03:35:47;;;;;;;13.93;12.83;;;;;;;14.40;94.19;95879.56;4366701;32;20286;-57
2022/04/15 03:38:14;;;;;;;14.40;13.03;;;;;;;14.42;94.44;95886.22;4372671;32;20181;-59
2022/04/15 03:40:41;;;;;;;15.67;14.37;;;;;;;14.38;93.76;95882.53;4358377;32;20253;-56
2022/04/15 03:43:08;;;;;;;13.80;12.67;;;;;;;14.42;94.48;95888.88;4352146;32;20197;-56
2022/04/15 03:45:35;;;;;;;13.70;12.60;;;;;;;14.54;92.33;95887.56;4371539;32;20204;-56
2022/04/15 03:48:07;;;;;;;14.93;13.70;;;;;;;14.48;93.14;95883.44;4351636;32;20196;-56
2022/04/15 03:50:34;;;;;;;14.57;12.93;;;;;;;14.46;93.28;95874.94;4338590;32;20201;-56
2022/04/15 03:53:00;;;;;;;17.27;15.60;;;;;;;14.52;92.83;95876.41;4345950;32;20237;-55
2022/04/15 03:55:27;;;;;;;13.30;12.10;;;;;;;14.29;94.62;95871.03;4364482;32;20193;-56
2022/04/15 03:57:54;;;;;;;13.27;12.17;;;;;;;14.39;92.99;95868.09;4371569;32;20264;-56
2022/04/15 04:00:23;;;;;;;18.10;16.27;;;;;;;14.56;91.47;95872.81;4364782;32;20299;-56
2022/04/15 04:03:03;;;;;;;16.30;14.90;;;;;;;14.63;92.00;95888.41;4347039;32;20184;-57
2022/04/15 04:05:29;;;;;;;16.10;14.73;;;;;;;14.61;92.80;95886.03;4319099;32;20224;-56
2022/04/15 04:07:56;;;;;;;18.90;17.20;;;;;;;14.47;93.74;95889.88;4344437;32;20235;-56
2022/04/15 04:10:21;;;;;;;15.90;14.40;;;;;;;14.45;94.34;95882.16;4354964;32;20283;-56
2022/04/15 04:12:51;;;;;;;16.43;14.43;;;;;;;14.36;95.44;95889.28;4364705;32;20192;-55
2022/04/15 04:15:19;;;;;;;19.87;18.00;;;;;;;14.47;93.33;95889.88;4363568;32;20215;-57
2022/04/15 04:17:48;;;;;;;13.53;12.23;;;;;;;14.47;94.51;95888.00;4370954;32;20184;-56
2022/04/15 04:20:18;;;;;;;19.03;17.13;;;;;;;14.53;92.29;95889.44;4334734;32;20231;-55
2022/04/15 04:22:44;;;;;;;18.87;17.00;;;;;;;14.55;93.19;95889.16;4336184;32;20208;-56
2022/04/15 04:25:11;;;;;;;18.63;17.03;;;;;;;14.52;92.85;95893.22;4365276;32;20284;-56
2022/04/15 04:27:39;;;;;;;18.50;16.80;;;;;;;14.61;91.97;95893.25;4360346;32;20239;-55
2022/04/15 04:30:06;;;;;;;20.43;18.37;;;;;;;14.58;93.10;95893.84;4351323;32;20193;-56
2022/04/15 04:32:33;;;;;;;20.23;18.30;;;;;;;14.50;94.63;95897.28;4364786;32;20177;-56
2022/04/15 04:35:00;;;;;;;17.57;16.07;;;;;;;14.39;94.62;95892.13;4348243;32;20209;-56
2022/04/15 04:37:27;;;;;;;17.00;15.40;;;;;;;14.43;93.03;95898.47;4322904;32;20197;-56
2022/04/15 04:39:52;;;;;;;17.70;16.20;;;;;;;14.46;93.14;95898.97;4353224;32;20307;-56
2022/04/15 04:42:19;;;;;;;18.43;16.80;;;;;;;14.65;92.30;95907.59;4362315;32;20189;-60
2022/04/15 04:44:46;;;;;;;17.07;15.67;;;;;;;14.63;92.18;95905.22;4356309;32;20189;-55
2022/04/15 04:47:12;;;;;;;21.90;19.97;;;;;;;14.66;92.00;95915.28;4334803;32;20267;-56
2022/04/15 04:49:39;;;;;;;19.07;17.13;;;;;;;14.73;93.29;95917.53;4368749;32;20188;-56
2022/04/15 04:52:08;;;;;;;22.27;20.03;;;;;;;14.57;92.73;95921.66;4362858;32;20269;-56
2022/04/15 04:54:34;;;;;;;21.10;19.10;;;;;;;14.52;93.08;95919.91;4353171;32;20200;-57
2022/04/15 04:57:00;;;;;;;19.13;17.43;;;;;;;14.57;92.90;95922.44;4330887;32;20367;-56
2022/04/15 04:59:29;;;;;;;17.77;15.93;;;;;;;14.56;91.93;95920.06;4345288;32;20247;-56
2022/04/15 05:01:56;;;;;;;16.73;15.37;;;;;;;14.60;91.04;95929.06;4360427;32;20181;-54
2022/04/15 05:04:23;;;;;;;19.10;17.30;;;;;;;14.70;90.53;95931.50;4368439;32;20185;-55
2022/04/15 05:06:49;;;;;;;20.67;18.57;;;;;;;14.70;90.90;95937.63;4357828;32;20207;-56
2022/04/15 05:09:15;;;;;;;18.20;16.43;;;;;;;14.69;90.51;95936.06;4340183;32;20185;-57
2022/04/15 05:11:42;;;;;;;20.50;18.73;;;;;;;14.64;90.96;95933.50;4381282;32;20302;-56
2022/04/15 05:14:12;;;;;;;15.87;14.37;;;;;;;14.56;91.49;95944.09;4361244;32;20181;-56
2022/04/15 05:16:39;;;;;;;21.07;19.13;;;;;;;14.47;90.96;95944.06;4360331;32;20192;-56
2022/04/15 05:19:05;;;;;;;18.97;17.27;;;;;;;14.61;91.02;95942.12;4356795;32;20212;-57
2022/04/15 05:21:35;;;;;;;19.20;17.43;;;;;;;14.56;90.50;95931.53;4338857;32;20193;-57
2022/04/15 05:24:04;;;;;;;21.57;19.77;;;;;;;14.57;90.43;95932.34;4359843;32;20264;-56
2022/04/15 05:26:33;;;;;;;22.10;20.17;;;;;;;14.53;91.18;95948.19;4364523;32;20211;-56
2022/04/15 05:29:01;;;;;;;19.17;17.07;;;;;;;14.62;91.16;95940.22;4370264;32;20192;-57
2022/04/15 05:31:28;;;;;;;20.60;18.73;;;;;;;14.58;90.67;95947.25;4353976;32;20231;-56
2022/04/15 05:33:55;;;;;;;21.43;19.47;;;;;;;14.71;89.62;95944.56;4345664;32;20245;-56
2022/04/15 05:36:23;;;;;;;17.93;16.37;;;;;;;14.69;90.85;95951.28;4333058;32;20181;-56
2022/04/15 05:38:51;;;;;;;18.47;16.77;;;;;;;14.59;90.54;95962.19;4346222;32;20249;-59
2022/04/15 05:41:20;;;;;;;19.03;17.43;;;;;;;14.69;90.22;95956.63;4370978;32;20260;-56
2022/04/15 05:43:48;;;;;;;21.53;19.63;;;;;;;14.64;89.68;95959.41;4353062;32;20207;-54
2022/04/15 05:46:13;;;;;;;21.27;19.33;;;;;;;14.71;89.86;95965.91;4353723;32;20215;-56
2022/04/15 05:48:47;;;;;;;21.93;19.87;;;;;;;14.75;90.27;95966.09;4348750;32;20189;-56
2022/04/15 05:51:14;;;;;;;20.53;18.67;;;;;;;14.74;90.52;95959.97;4366535;32;20197;-56
2022/04/15 05:53:41;;;;;;;23.03;20.83;;;;;;;14.68;89.88;95971.06;4356018;32;20281;-55
2022/04/15 05:56:08;;;;;;;17.67;16.13;;;;;;;14.80;89.96;95965.97;4362609;32;20230;-57
2022/04/15 05:58:34;;;;;;;18.13;16.43;;;;;;;14.79;89.40;95962.50;4347776;32;20193;-55
2022/04/15 06:01:00;;;;;;;19.00;17.43;;;;;;;14.83;89.20;95972.59;4361050;32;20273;-57
2022/04/15 06:03:25;;;;;;;20.83;19.00;;;;;;;14.95;88.05;95976.31;4358288;32;20192;-54
2022/04/15 06:05:51;;;;;;;20.33;18.60;;;;;;;14.88;89.11;95975.94;4360194;32;20211;-56
2022/04/15 06:08:20;;;;;;;19.00;17.40;;;;;;;14.92;88.83;95976.13;4352276;32;20204;-56
2022/04/15 06:10:47;;;;;;;21.00;19.10;;;;;;;14.86;88.02;95975.44;4358610;32;20238;-56
2022/04/15 06:13:14;;;;;;;20.00;18.20;;;;;;;14.81;89.37;95974.78;4364847;32;20185;-56
2022/04/15 06:15:51;;;;;;;19.37;17.70;;;;;;;14.77;88.93;95975.38;4372065;32;20188;-56
2022/04/15 06:18:36;;;;;;;16.67;15.17;;;;;;;14.60;89.42;95975.25;4352402;32;20212;-54
2022/04/15 06:21:06;;;;;;;18.97;17.30;;;;;;;14.76;88.18;95989.03;4351894;32;20186;-57
2022/04/15 06:23:33;;;;;;;20.30;18.40;;;;;;;14.76;89.12;95989.03;4358784;32;20201;-56
2022/04/15 06:26:20;;;;;;;22.73;20.63;;;;;;;14.80;89.04;95982.00;4369351;32;20184;-54
2022/04/15 06:28:50;;;;;;;20.30;18.60;;;;;;;14.74;90.49;95985.91;4355908;32;20181;-55
2022/04/15 06:31:23;;;;;;;21.50;19.57;;;;;;;14.79;89.08;95978.53;4374136;32;20250;-56
2022/04/15 06:33:52;;;;;;;20.27;18.53;;;;;;;14.61;89.44;95986.72;4355708;32;20228;-56
2022/04/15 06:36:20;;;;;;;20.60;18.77;;;;;;;14.57;89.71;95994.53;4374612;32;20208;-56
2022/04/15 06:38:47;;;;;;;20.27;18.57;;;;;;;14.64;89.25;95986.13;4369965;32;20251;-56
2022/04/15 06:41:14;;;;;;;18.20;16.40;;;;;;;14.62;89.56;95993.63;4362318;32;20203;-56
2022/04/15 06:43:40;;;;;;;20.33;18.30;;;;;;;14.62;88.62;95993.63;4359097;32;20185;-54
2022/04/15 06:46:06;;;;;;;18.83;17.17;;;;;;;14.57;88.86;95991.87;4341392;32;20200;-56
2022/04/15 06:48:33;;;;;;;20.67;18.87;;;;;;;14.53;89.39;96000.81;4350771;32;20193;-55
2022/04/15 06:51:05;;;;;;;22.30;20.20;;;;;;;14.63;89.16;95998.69;4357098;32;20205;-56
2022/04/15 06:53:32;;;;;;;19.90;17.90;;;;;;;14.69;89.66;95999.37;4347963;32;20240;-55
2022/04/15 06:56:00;;;;;;;17.63;15.93;;;;;;;14.58;89.27;96008.69;4369091;32;20199;-57
2022/04/15 06:58:26;;;;;;;19.43;17.80;;;;;;;14.59;88.63;96005.72;4368016;32;20189;-55
2022/04/15 07:00:53;;;;;;;17.97;16.40;;;;;;;14.58;89.14;96009.47;4371328;32;20173;-56
2022/04/15 07:03:20;;;;;;;19.80;17.90;;;;;;;14.72;88.94;96009.44;4340921;32;20189;-56
2022/04/15 07:05:46;;;;;;;17.13;15.53;;;;;;;14.76;88.62;96008.50;4352160;32;20184;-57
2022/04/15 07:08:13;;;;;;;19.27;17.50;;;;;;;14.72;87.63;96009.44;4358138;32;20279;-55
2022/04/15 07:10:40;;;;;;;19.73;18.03;;;;;;;14.81;87.85;96015.63;4373294;32;20306;-57
2022/04/15 07:13:09;;;;;;;16.63;14.77;;;;;;;14.71;88.32;96013.22;4373140;32;20185;-56
2022/04/15 07:15:36;;;;;;;18.03;16.23;;;;;;;14.76;87.64;96015.75;4353841;32;20196;-56
2022/04/15 07:18:05;;;;;;;18.20;16.67;;;;;;;14.87;87.16;96006.41;4364656;32;20199;-56
2022/04/15 07:20:31;;;;;;;18.43;16.70;;;;;;;14.65;87.95;96025.09;4356143;32;20235;-56
2022/04/15 07:23:00;;;;;;;18.53;16.73;;;;;;;14.60;88.76;96011.84;4348690;32;20189;-57
2022/04/15 07:25:27;;;;;;;18.07;16.37;;;;;;;14.79;87.72;96020.47;4325500;32;20200;-56
2022/04/15 07:27:57;;;;;;;17.10;15.60;;;;;;;14.69;88.08;96015.37;4297967;32;20212;-56
2022/04/15 07:30:27;;;;;;;22.00;20.00;;;;;;;14.83;87.85;96026.00;4323159;32;20207;-55
2022/04/15 07:32:53;;;;;;;19.27;17.43;;;;;;;14.84;87.17;96022.25;4374123;32;20193;-56
2022/04/15 07:35:22;;;;;;;21.80;19.80;;;;;;;14.85;87.19;96024.63;4344294;32;20223;-56
2022/04/15 07:37:50;;;;;;;20.10;18.30;;;;;;;14.87;87.00;96027.78;4339553;32;20173;-54
2022/04/15 07:40:17;;;;;;;20.77;18.97;;;;;;;14.78;87.39;96016.22;4348315;32;20190;-54
2022/04/15 07:42:45;;;;;;;19.67;17.87;;;;;;;14.94;87.65;96017.47;4366389;32;20188;-55
2022/04/15 07:45:15;;;;;;;21.57;19.33;;;;;;;15.08;85.96;96020.88;4328787;32;20184;-58
2022/04/15 07:47:43;;;;;;;19.40;17.60;;;;;;;15.04;85.92;96019.88;4363163;32;20189;-56
2022/04/15 07:50:11;;;;;;;20.50;18.40;;;;;;;15.29;84.69;96015.81;4347230;32;20283;-58
2022/04/15 07:52:38;;;;;;;22.23;20.33;;;;;;;15.35;84.00;96017.28;4351372;32;20188;-53
2022/04/15 07:55:06;;;;;;;20.50;18.73;;;;;;;15.28;84.19;96024.13;4371586;32;20192;-56
2022/04/15 07:57:37;;;;;;;18.07;16.57;;;;;;;15.34;84.28;96031.72;4356764;32;20271;-56
2022/04/15 08:00:05;;;;;;;23.13;21.13;;;;;;;15.57;84.33;96029.84;4354961;32;20209;-56
2022/04/15 08:02:33;;;;;;;17.73;16.07;;;;;;;15.45;83.66;96027.69;4315550;32;20208;-57
2022/04/15 08:04:58;;;;;;;19.70;17.90;;;;;;;15.48;83.48;96026.28;4357527;32;20263;-56
2022/04/15 08:07:27;;;;;;;19.03;17.40;;;;;;;15.46;84.07;96031.94;4339365;32;20236;-55
2022/04/15 08:09:56;;;;;;;18.37;16.77;;;;;;;15.65;83.26;96037.09;4344100;32;20185;-56
2022/04/15 08:12:23;;;;;;;18.80;17.20;;;;;;;15.62;82.75;96032.38;4355455;32;20185;-56
2022/04/15 08:14:52;;;;;;;18.10;16.60;;;;;;;15.90;81.75;96032.19;4353770;32;20266;-56
2022/04/15 08:17:19;;;;;;;20.17;18.07;;;;;;;15.88;82.03;96035.16;4353010;32;20226;-55
2022/04/15 08:19:46;;;;;;;20.27;17.30;;;;;;;15.90;80.79;96026.81;4367524;32;20188;-56
2022/04/15 08:22:14;;;;;;;20.13;18.27;;;;;;;16.09;80.81;96035.41;4367704;32;20194;-58
2022/04/15 08:24:43;;;;;;;21.87;16.87;;;;;;;16.10;80.95;96045.00;4354477;32;20259;-56
2022/04/15 08:27:16;;;;;;;20.70;18.80;;;;;;;16.17;80.19;96031.19;4349509;32;20192;-59
2022/04/15 08:29:42;;;;;;;21.00;18.97;;;;;;;16.05;79.77;96042.47;4349487;32;20185;-56
2022/04/15 08:32:10;;;;;;;17.73;15.90;;;;;;;15.94;80.19;96041.19;4353692;32;20207;-56
2022/04/15 08:34:37;;;;;;;19.97;18.17;;;;;;;16.15;79.07;96045.66;4357336;32;20211;-56
2022/04/15 08:37:26;;;;;;;20.10;18.20;;;;;;;16.15;79.14;96047.53;4340976;32;20189;-56
2022/04/15 08:39:54;;;;;;;19.93;16.83;;;;;;;16.49;78.16;96050.31;4364922;32;20200;-56
2022/04/15 08:42:22;;;;;;;18.20;16.47;;;;;;;16.41;78.55;96053.78;4363166;32;20184;-55
2022/04/15 08:44:56;;;;;;;17.10;15.63;;;;;;;16.72;76.61;96055.56;4370423;32;20184;-56
2022/04/15 08:47:24;;;;;;;16.50;15.10;;;;;;;16.77;75.76;96052.75;4379590;32;20223;-56
2022/04/15 08:49:51;;;;;;;15.47;14.07;;;;;;;16.44;75.84;96061.16;4342686;32;20193;-54
2022/04/15 08:52:18;;;;;;;17.00;15.50;;;;;;;16.46;76.16;96058.97;4357631;32;20226;-56
2022/04/15 08:54:44;;;;;;;18.07;16.17;;;;;;;16.79;75.10;96055.91;4334477;32;20193;-55
2022/04/15 08:57:10;;;;;;;14.27;12.97;;;;;;;16.79;75.58;96048.66;4321949;32;20253;-56
2022/04/15 08:59:40;;;;;;;18.10;16.63;;;;;;;16.95;74.49;96057.00;4331895;32;20227;-55
2022/04/15 09:02:14;;;;;;;18.03;16.63;;;;;;;16.98;75.21;96059.06;4353826;32;20185;-56
2022/04/15 09:04:40;;;;;;;17.57;16.03;;;;;;;17.04;75.40;96055.09;4368400;32;20210;-56
2022/04/15 09:07:06;;;;;;;16.87;15.37;;;;;;;17.02;74.20;96057.31;4360653;32;20255;-56
2022/04/15 09:09:37;;;;;;;16.07;14.67;;;;;;;16.94;74.87;96055.41;4313731;32;20268;-56
2022/04/15 09:12:03;;;;;;;15.20;13.77;;;;;;;16.91;75.54;96060.63;4342589;32;20194;-56
2022/04/15 09:14:31;;;;;;;14.73;13.27;;;;;;;16.92;75.46;96046.91;4363446;32;20201;-55
2022/04/15 09:17:01;;;;;;;15.00;13.87;;;;;;;16.97;73.74;96060.16;4345075;32;20211;-56
2022/04/15 09:19:28;;;;;;;12.57;11.37;;;;;;;16.70;73.48;96057.75;4359719;32;20189;-56
2022/04/15 09:21:57;;;;;;;13.80;12.53;;;;;;;16.68;73.83;96057.28;4358590;32;20231;-57
2022/04/15 09:24:37;;;;;;;12.70;11.47;;;;;;;16.63;72.18;96054.72;4374198;32;20259;-56
2022/04/15 09:27:07;;;;;;;15.77;14.37;;;;;;;16.75;72.93;96060.31;4363592;32;20197;-56
2022/04/15 09:29:40;;;;;;;12.77;11.47;;;;;;;16.71;74.30;96057.44;4332271;32;20193;-54
2022/04/15 09:32:14;;;;;;;14.60;13.37;;;;;;;16.68;72.34;96063.44;4347051;32;20218;-51
2022/04/15 09:35:00;;;;;;;14.23;12.90;;;;;;;16.40;74.57;96059.44;4311161;32;20193;-53
2022/04/15 09:37:42;;;;;;;10.63;9.77;;;;;;;16.45;73.29;96060.06;4354282;32;20244;-52
2022/04/15 09:40:18;;;;;;;10.70;9.87;;;;;;;16.15;68.21;96055.56;4329015;32;20209;-55
2022/04/15 09:42:58;;;;;;;28.17;6.40;;;;;;;16.12;68.69;96056.19;4344594;32;20193;-44
2022/04/15 09:45:37;;;;;;;11.40;4.17;;;;;;;16.59;71.51;96064.50;4352047;32;20230;-46
2022/04/15 09:48:09;;;;;;;7.90;5.93;;;;;;;17.74;70.19;96045.84;4367253;32;20271;-45
2022/04/15 09:50:42;;;;;;;13.50;9.50;;;;;;;18.26;67.01;96042.19;4344505;32;20189;-46
2022/04/15 09:53:13;;;;;;;11.67;10.77;;;;;;;18.82;63.20;96051.66;4371750;32;20252;-45
2022/04/15 09:55:46;;;;;;;11.23;10.23;;;;;;;18.34;61.51;96055.56;4352855;32;20189;-44
2022/04/15 09:58:28;;;;;;;11.37;8.47;;;;;;;17.14;65.04;96049.41;4335555;32;20207;-45
2022/04/15 10:00:58;;;;;;;11.00;10.00;;;;;;;18.43;64.54;96047.47;4365934;32;20219;-43
2022/04/15 10:03:26;;;;;;;10.13;9.10;;;;;;;18.55;62.84;96042.94;4358882;32;20196;-45
2022/04/15 10:06:01;;;;;;;7.77;6.97;;;;;;;18.90;60.36;96053.50;4346519;32;20188;-46
2022/04/15 10:08:30;;;;;;;8.67;7.53;;;;;;;19.52;60.15;96042.69;4376367;32;20211;-44
2022/04/15 10:11:17;;;;;;;9.07;7.10;;;;;;;19.63;56.66;96042.25;4358405;32;20193;-46
2022/04/15 10:13:45;;;;;;;10.83;7.07;;;;;;;19.70;58.39;96043.28;4345206;32;20197;-46
2022/04/15 10:16:13;;;;;;;7.77;7.17;;;;;;;19.68;55.55;96050.12;4341389;32;20225;-45
2022/04/15 10:18:41;;;;;;;7.20;6.53;;;;;;;19.70;57.74;96037.91;4358733;32;20208;-53
2022/04/15 10:21:09;;;;;;;7.70;7.00;;;;;;;19.71;56.80;96041.38;4335313;32;20209;-44
2022/04/15 10:23:36;;;;;;;7.33;6.60;;;;;;;19.92;55.40;96039.41;4331725;32;20248;-45
2022/04/15 10:26:06;;;;;;;7.10;6.33;;;;;;;20.09;55.21;96041.88;4365107;32;20195;-47
2022/04/15 10:28:49;;;;;;;6.43;5.83;;;;;;;20.01;55.27;96041.97;4368577;32;20223;-43
2022/04/15 10:31:21;;;;;;;7.30;6.60;;;;;;;19.85;55.75;96031.88;4364109;32;20207;-45
2022/04/15 10:33:49;;;;;;;6.23;5.67;;;;;;;19.55;52.35;96025.06;4357630;32;20203;-45
2022/04/15 10:36:21;;;;;;;6.50;5.10;;;;;;;19.59;53.12;96025.19;4336561;32;20232;-43
2022/04/15 10:39:09;;;;;;;8.10;7.40;;;;;;;19.79;55.42;96022.41;4381902;32;20196;-44
2022/04/15 10:41:46;;;;;;;8.83;8.07;;;;;;;19.34;49.87;96025.09;4333145;32;20201;-45
2022/04/15 10:44:39;;;;;;;6.23;5.57;;;;;;;18.08;52.69;96022.69;4326520;32;20233;-53
2022/04/15 10:47:30;;;;;;;7.50;7.00;;;;;;;18.07;54.54;96021.09;4360337;32;20193;-55
2022/04/15 10:50:07;;;;;;;6.13;5.73;;;;;;;17.93;53.76;96020.53;4355786;32;20259;-51
2022/04/15 10:52:39;;;;;;;6.57;6.10;;;;;;;17.89;55.20;96016.91;4345687;32;20247;-52
2022/04/15 10:55:16;;;;;;;7.17;6.43;;;;;;;17.83;54.48;96022.47;4344688;32;20193;-56
2022/04/15 10:57:46;;;;;;;7.90;7.17;;;;;;;17.88;55.12;96018.78;4354645;32;20184;-55
2022/04/15 11:03:28;;;;;;;7.63;7.03;;;;;;;17.66;55.10;96027.12;4356923;32;20223;-53
2022/04/15 11:06:02;;;;;;;8.00;7.30;;;;;;;17.54;53.93;96030.41;4318614;32;20229;-52
2022/04/15 11:08:52;;;;;;;8.17;7.37;;;;;;;17.62;55.04;96031.50;4367328;32;20389;-55
2022/04/15 11:11:33;;;;;;;9.67;8.87;;;;;;;17.36;56.33;96018.16;4357090;32;20207;-56
2022/04/15 11:14:34;;;;;;;8.90;8.30;;;;;;;17.41;54.55;96020.69;4359468;32;20268;-51
2022/04/15 11:17:00;;;;;;;6.67;6.17;;;;;;;17.57;55.42;96016.38;4352174;32;20188;-54
2022/04/15 11:19:27;;;;;;;7.50;7.00;;;;;;;17.48;56.94;96016.38;4350831;32;20210;-55
2022/04/15 11:21:54;;;;;;;7.23;6.63;;;;;;;17.65;56.49;96020.16;4329059;32;20200;-53
2022/04/15 11:24:26;;;;;;;9.13;8.33;;;;;;;17.67;57.17;96012.56;4354384;32;20251;-52
2022/04/15 11:27:03;;;;;;;8.90;8.20;;;;;;;17.47;56.06;96009.44;4356434;32;20308;-51
2022/04/15 11:29:42;;;;;;;8.33;7.63;;;;;;;17.33;55.84;96021.47;4352608;32;20268;-51
2022/04/15 11:32:08;;;;;;;7.83;7.23;;;;;;;17.12;55.60;96014.09;4360563;32;20203;-53